Time;durP1;ratioP1;P1;durP2;ratioP2;P2;SDS_P1;SDS_P2;PMS_P1;PMS_P2;Temp;Humidity;BMP_temperature;BMP_pressure;BME280_temperature;BME280_humidity;BME280_pressure;Samples;Min_cycle;Max_cycle;Signal;HPM_P1;HPM_P2
2024/01/07 00:00:57;;;;;;;62.30;59.03;;;;;;;;;;5010286;28;20049;-58
2024/01/07 00:20:23;;;;;;;;;;;;;;;;;;;;;
2024/01/07 00:26:16;;;;;;;46.72;44.35;;;;;;;;;;4976584;28;20146;-57
2024/01/07 00:28:42;;;;;;;57.25;54.35;;;;;;;;;;4987382;28;20396;-58
2024/01/07 00:31:08;;;;;;;58.03;55.10;;;;;;;;;;4985821;28;20037;-57
2024/01/07 00:33:34;;;;;;;68.30;64.88;;;;;;;;;;5010185;28;20099;-57
2024/01/07 00:36:00;;;;;;;66.63;63.28;;;;;;;;;;5029070;28;20045;-56
2024/01/07 00:38:25;;;;;;;64.05;60.85;;;;;;;;;;5030299;28;20025;-57
2024/01/07 00:40:50;;;;;;;62.50;59.35;;;;;;;;;;5032317;28;20116;-57
2024/01/07 00:43:16;;;;;;;57.65;54.72;;;;;;;;;;5030849;28;20055;-58
2024/01/07 00:45:41;;;;;;;58.17;55.25;;;;;;;;;;5032769;28;20044;-57
2024/01/07 00:48:07;;;;;;;53.85;51.08;;;;;;;;;;5031755;28;20042;-57
2024/01/07 00:50:32;;;;;;;52.90;50.20;;;;;;;;;;5031485;28;20025;-57
2024/01/07 00:52:57;;;;;;;58.42;55.47;;;;;;;;;;5025654;28;20033;-58
2024/01/07 00:55:23;;;;;;;55.38;52.58;;;;;;;;;;5031026;28;20474;-56
2024/01/07 00:57:49;;;;;;;57.22;54.33;;;;;;;;;;5030728;28;20437;-57
2024/01/07 01:00:15;;;;;;;56.83;53.85;;;;;;;;;;5029947;28;20067;-58
2024/01/07 01:02:40;;;;;;;62.17;59.08;;;;;;;;;;5034409;28;20040;-57
2024/01/07 01:05:06;;;;;;;60.35;57.28;;;;;;;;;;5031037;28;20076;-57
2024/01/07 01:07:31;;;;;;;54.33;51.53;;;;;;;;;;5024312;28;20032;-57
2024/01/07 01:09:58;;;;;;;57.03;54.13;;;;;;;;;;5034216;28;20049;-58
2024/01/07 01:12:23;;;;;;;54.58;51.83;;;;;;;;;;5033984;28;20029;-58
2024/01/07 01:14:48;;;;;;;49.08;46.58;;;;;;;;;;5030276;28;20033;-58
2024/01/07 01:17:14;;;;;;;53.58;50.88;;;;;;;;;;5033723;28;20029;-58
2024/01/07 01:19:39;;;;;;;54.15;51.35;;;;;;;;;;5031827;28;20029;-58
2024/01/07 01:22:05;;;;;;;55.00;52.20;;;;;;;;;;5031407;28;20069;-58
2024/01/07 01:24:30;;;;;;;50.53;47.92;;;;;;;;;;5030770;28;20624;-58
2024/01/07 01:26:55;;;;;;;48.10;45.60;;;;;;;;;;5026315;28;20632;-58
2024/01/07 01:29:21;;;;;;;52.17;49.50;;;;;;;;;;5029187;28;20124;-58
2024/01/07 01:31:46;;;;;;;47.65;45.22;;;;;;;;;;5029353;28;20048;-57
2024/01/07 01:34:11;;;;;;;48.53;45.95;;;;;;;;;;5024666;28;20041;-58
2024/01/07 01:36:37;;;;;;;50.70;48.15;;;;;;;;;;5034268;28;20025;-57
2024/01/07 01:39:02;;;;;;;49.50;46.90;;;;;;;;;;5031131;28;20045;-57
2024/01/07 01:41:27;;;;;;;47.95;45.47;;;;;;;;;;5026691;28;20056;-57
2024/01/07 01:43:57;;;;;;;47.38;44.97;;;;;;;;;;5027442;28;20033;-57
2024/01/07 01:46:23;;;;;;;49.10;46.58;;;;;;;;;;5032195;28;20042;-57
2024/01/07 01:48:48;;;;;;;52.60;49.88;;;;;;;;;;5031884;28;20072;-58
2024/01/07 01:51:13;;;;;;;49.17;46.67;;;;;;;;;;5027667;28;20095;-58
2024/01/07 01:53:39;;;;;;;50.15;47.58;;;;;;;;;;5028319;28;20036;-59
2024/01/07 01:56:05;;;;;;;49.88;47.38;;;;;;;;;;5028112;28;20914;-57
2024/01/07 01:58:32;;;;;;;49.72;47.13;;;;;;;;;;5025069;28;20485;-57
2024/01/07 02:00:57;;;;;;;51.10;48.50;;;;;;;;;;5029603;28;20029;-59
2024/01/07 02:03:22;;;;;;;54.35;51.63;;;;;;;;;;5030460;28;20052;-57
2024/01/07 02:05:49;;;;;;;58.90;55.88;;;;;;;;;;5030241;28;20056;-57
2024/01/07 02:08:15;;;;;;;52.65;49.97;;;;;;;;;;5032283;28;20512;-57
2024/01/07 02:10:40;;;;;;;51.90;49.30;;;;;;;;;;5032385;28;20178;-57
2024/01/07 02:13:05;;;;;;;49.72;47.22;;;;;;;;;;5029642;28;20032;-59
2024/01/07 02:15:33;;;;;;;46.58;44.17;;;;;;;;;;5029245;28;20442;-57
2024/01/07 02:17:58;;;;;;;46.42;44.03;;;;;;;;;;5029948;28;20518;-57
2024/01/07 02:20:24;;;;;;;47.00;44.60;;;;;;;;;;5032292;28;20167;-58
2024/01/07 02:22:49;;;;;;;51.60;49.00;;;;;;;;;;5030273;28;20070;-56
2024/01/07 02:25:14;;;;;;;48.15;45.72;;;;;;;;;;5027430;28;20092;-58
2024/01/07 02:27:40;;;;;;;50.78;48.17;;;;;;;;;;5029922;28;20083;-57
2024/01/07 02:30:05;;;;;;;52.50;49.67;;;;;;;;;;5030078;28;20121;-56
2024/01/07 02:32:34;;;;;;;49.28;46.72;;;;;;;;;;5031712;28;20036;-57
2024/01/07 02:34:59;;;;;;;48.85;46.35;;;;;;;;;;5028231;28;20177;-57
2024/01/07 02:37:25;;;;;;;56.63;53.63;;;;;;;;;;5029552;28;20143;-57
2024/01/07 02:39:50;;;;;;;52.72;50.08;;;;;;;;;;5029093;28;20036;-57
2024/01/07 02:42:15;;;;;;;56.45;53.63;;;;;;;;;;5032414;28;20033;-57
2024/01/07 02:44:41;;;;;;;54.17;51.47;;;;;;;;;;5031157;28;20039;-58
2024/01/07 02:47:06;;;;;;;60.63;57.55;;;;;;;;;;5029347;28;20040;-58
2024/01/07 02:49:32;;;;;;;56.58;53.70;;;;;;;;;;5037077;28;20462;-57
2024/01/07 02:51:57;;;;;;;58.05;55.15;;;;;;;;;;5030295;28;20036;-58
2024/01/07 02:54:22;;;;;;;59.47;56.50;;;;;;;;;;5031383;28;20393;-57
2024/01/07 02:56:48;;;;;;;62.38;59.20;;;;;;;;;;5032453;28;20045;-57
2024/01/07 02:59:13;;;;;;;62.10;58.97;;;;;;;;;;5031521;28;20052;-58
2024/01/07 03:01:42;;;;;;;63.45;60.20;;;;;;;;;;5029855;28;20790;-57
2024/01/07 03:04:12;;;;;;;64.78;61.55;;;;;;;;;;5030300;28;20029;-57
2024/01/07 03:06:37;;;;;;;68.88;65.40;;;;;;;;;;5032092;28;20064;-58
2024/01/07 03:09:03;;;;;;;67.95;64.47;;;;;;;;;;5031014;28;20100;-56
2024/01/07 03:11:29;;;;;;;81.88;77.82;;;;;;;;;;5032374;28;20099;-57
2024/01/07 03:13:55;;;;;;;77.07;73.25;;;;;;;;;;5031215;28;20114;-58
2024/01/07 03:16:21;;;;;;;83.45;79.30;;;;;;;;;;5034168;28;20067;-58
2024/01/07 03:18:47;;;;;;;100.45;95.32;;;;;;;;;;5028379;28;20550;-57
2024/01/07 03:21:19;;;;;;;106.93;101.63;;;;;;;;;;5032431;28;20059;-57
2024/01/07 03:23:45;;;;;;;106.82;101.55;;;;;;;;;;5032995;28;20036;-58
2024/01/07 03:26:11;;;;;;;113.28;107.63;;;;;;;;;;5034661;28;20025;-58
2024/01/07 03:28:36;;;;;;;108.97;103.57;;;;;;;;;;5033670;28;20033;-57
2024/01/07 03:31:08;;;;;;;109.80;104.40;;;;;;;;;;5034329;28;20144;-57
2024/01/07 03:33:33;;;;;;;107.82;102.50;;;;;;;;;;5031079;28;20052;-58
2024/01/07 03:35:58;;;;;;;106.18;100.85;;;;;;;;;;5030751;28;20029;-57
2024/01/07 03:38:24;;;;;;;106.78;101.50;;;;;;;;;;5035271;28;20024;-57
2024/01/07 03:40:49;;;;;;;101.75;96.72;;;;;;;;;;5030395;28;20030;-57
2024/01/07 03:43:14;;;;;;;102.93;97.85;;;;;;;;;;5029829;28;20038;-58
2024/01/07 03:45:40;;;;;;;105.57;100.35;;;;;;;;;;5029758;28;20080;-58
2024/01/07 03:48:05;;;;;;;100.38;95.45;;;;;;;;;;5031027;28;20029;-58
2024/01/07 03:50:31;;;;;;;100.45;95.47;;;;;;;;;;5031575;28;20471;-58
2024/01/07 03:52:56;;;;;;;99.72;94.78;;;;;;;;;;5028687;28;20061;-58
2024/01/07 03:55:21;;;;;;;102.78;97.43;;;;;;;;;;5014192;28;20052;-57
2024/01/07 03:57:47;;;;;;;103.55;98.40;;;;;;;;;;5035241;28;20076;-58
2024/01/07 04:00:12;;;;;;;96.32;91.55;;;;;;;;;;5029388;28;20038;-57
2024/01/07 04:02:38;;;;;;;92.35;87.78;;;;;;;;;;5032678;28;20048;-57
2024/01/07 04:05:04;;;;;;;95.13;90.40;;;;;;;;;;5032918;28;20044;-58
2024/01/07 04:07:30;;;;;;;99.47;94.55;;;;;;;;;;5032920;28;20025;-58
2024/01/07 04:09:55;;;;;;;97.10;92.13;;;;;;;;;;5031703;28;20513;-58
2024/01/07 04:12:20;;;;;;;101.00;96.00;;;;;;;;;;5033581;28;20067;-57
2024/01/07 04:14:46;;;;;;;90.85;86.32;;;;;;;;;;5028581;28;20037;-57
2024/01/07 04:17:11;;;;;;;89.15;84.72;;;;;;;;;;5032678;28;20032;-58
2024/01/07 04:19:38;;;;;;;86.35;82.05;;;;;;;;;;5034674;28;20033;-57
2024/01/07 04:22:03;;;;;;;86.43;82.15;;;;;;;;;;5034054;28;20109;-57
2024/01/07 04:24:28;;;;;;;93.40;88.70;;;;;;;;;;5030592;28;20113;-58
2024/01/07 04:26:54;;;;;;;97.82;93.00;;;;;;;;;;5034140;28;20787;-56
2024/01/07 04:29:19;;;;;;;95.65;90.90;;;;;;;;;;5036045;28;20492;-58
2024/01/07 04:31:44;;;;;;;103.63;98.45;;;;;;;;;;5034914;28;20020;-58
2024/01/07 04:34:10;;;;;;;111.82;105.88;;;;;;;;;;5035233;28;20065;-57
2024/01/07 04:36:35;;;;;;;105.18;99.82;;;;;;;;;;5034915;28;20074;-57
2024/01/07 04:39:00;;;;;;;96.00;90.95;;;;;;;;;;5029941;28;20119;-58
2024/01/07 04:41:26;;;;;;;88.93;84.53;;;;;;;;;;5032268;28;20045;-57
2024/01/07 04:43:52;;;;;;;97.82;92.97;;;;;;;;;;5026505;28;20038;-57
2024/01/07 04:46:17;;;;;;;111.75;106.28;;;;;;;;;;5033855;28;20554;-57
2024/01/07 04:48:43;;;;;;;108.93;103.55;;;;;;;;;;5033776;28;20036;-57
2024/01/07 04:51:08;;;;;;;113.05;107.43;;;;;;;;;;5034192;28;20025;-56
2024/01/07 04:53:33;;;;;;;112.00;106.47;;;;;;;;;;5031639;28;20471;-57
2024/01/07 04:55:59;;;;;;;105.40;100.20;;;;;;;;;;5032297;28;20494;-57
2024/01/07 04:58:24;;;;;;;103.22;98.07;;;;;;;;;;5027932;28;20478;-57
2024/01/07 05:00:50;;;;;;;110.35;104.88;;;;;;;;;;5031032;28;20792;-57
2024/01/07 05:03:15;;;;;;;122.13;115.97;;;;;;;;;;5029431;28;20072;-57
2024/01/07 05:05:40;;;;;;;132.35;125.75;;;;;;;;;;5023635;28;20099;-57
2024/01/07 05:08:06;;;;;;;133.35;126.70;;;;;;;;;;5030834;28;20057;-57
2024/01/07 05:10:32;;;;;;;134.52;127.82;;;;;;;;;;5026894;28;20076;-57
2024/01/07 05:12:58;;;;;;;144.63;137.40;;;;;;;;;;5027769;28;20033;-57
2024/01/07 05:15:23;;;;;;;138.35;131.38;;;;;;;;;;5030600;28;20026;-58
2024/01/07 05:17:48;;;;;;;132.88;126.22;;;;;;;;;;5028549;28;20435;-57
2024/01/07 05:20:16;;;;;;;122.95;116.82;;;;;;;;;;5029279;28;20040;-57
2024/01/07 05:22:42;;;;;;;106.30;100.88;;;;;;;;;;5029189;28;20041;-57
2024/01/07 05:25:08;;;;;;;110.82;105.20;;;;;;;;;;5028727;28;20087;-56
2024/01/07 05:27:33;;;;;;;121.82;115.70;;;;;;;;;;5030295;28;20033;-57
2024/01/07 05:29:58;;;;;;;123.20;117.07;;;;;;;;;;5031314;28;20037;-56
2024/01/07 05:32:24;;;;;;;115.35;109.45;;;;;;;;;;5026444;28;20033;-57
2024/01/07 05:34:50;;;;;;;120.97;114.97;;;;;;;;;;5028930;28;20458;-57
2024/01/07 05:37:15;;;;;;;123.78;117.53;;;;;;;;;;5031231;28;20029;-54
2024/01/07 05:39:40;;;;;;;122.75;116.45;;;;;;;;;;5027569;28;20055;-57
2024/01/07 05:42:06;;;;;;;114.30;108.55;;;;;;;;;;5030721;28;20124;-56
2024/01/07 05:44:31;;;;;;;110.40;104.80;;;;;;;;;;5029016;28;20078;-57
2024/01/07 05:46:56;;;;;;;112.78;107.05;;;;;;;;;;5028571;28;20399;-58
2024/01/07 05:49:22;;;;;;;114.30;108.32;;;;;;;;;;5031991;28;20053;-56
2024/01/07 05:51:47;;;;;;;104.93;99.60;;;;;;;;;;5025884;28;20056;-57
2024/01/07 05:54:12;;;;;;;99.45;94.45;;;;;;;;;;5030303;28;20052;-57
2024/01/07 05:56:40;;;;;;;98.97;94.07;;;;;;;;;;5028588;28;20080;-56
2024/01/07 05:59:05;;;;;;;105.80;100.43;;;;;;;;;;5030658;28;20389;-56
2024/01/07 06:01:32;;;;;;;109.22;103.10;;;;;;;;;;5030461;28;20029;-57
2024/01/07 06:03:57;;;;;;;97.28;92.38;;;;;;;;;;5030771;28;20029;-58
2024/01/07 06:06:23;;;;;;;93.63;88.95;;;;;;;;;;5028776;28;20044;-56
2024/01/07 06:08:48;;;;;;;92.50;87.90;;;;;;;;;;5013656;28;20451;-59
2024/01/07 06:11:18;;;;;;;96.15;91.32;;;;;;;;;;5030243;28;20044;-58
2024/01/07 06:13:44;;;;;;;94.70;89.80;;;;;;;;;;5027378;28;20034;-57
2024/01/07 06:16:10;;;;;;;84.90;80.60;;;;;;;;;;5036439;28;20032;-57
2024/01/07 06:18:35;;;;;;;84.78;80.47;;;;;;;;;;5037948;28;20628;-56
2024/01/07 06:21:00;;;;;;;95.57;90.80;;;;;;;;;;5034012;28;20087;-57
2024/01/07 06:23:26;;;;;;;100.15;95.18;;;;;;;;;;5035228;28;20044;-57
2024/01/07 06:25:51;;;;;;;85.63;81.30;;;;;;;;;;5031314;28;20088;-57
2024/01/07 06:28:16;;;;;;;75.40;71.65;;;;;;;;;;5031849;28;20048;-57
2024/01/07 06:30:42;;;;;;;75.05;71.22;;;;;;;;;;5033313;28;20025;-56
2024/01/07 06:33:07;;;;;;;79.93;75.85;;;;;;;;;;5034648;28;20539;-57
2024/01/07 06:35:32;;;;;;;77.10;73.15;;;;;;;;;;5033525;28;20095;-57
2024/01/07 06:37:58;;;;;;;79.43;75.25;;;;;;;;;;5033887;28;20117;-57
2024/01/07 06:40:23;;;;;;;77.05;73.10;;;;;;;;;;5036720;28;20520;-57
2024/01/07 06:42:49;;;;;;;83.53;79.38;;;;;;;;;;5034035;28;20033;-59
2024/01/07 06:45:15;;;;;;;68.75;65.28;;;;;;;;;;5033883;28;20028;-57
2024/01/07 06:47:40;;;;;;;63.90;60.58;;;;;;;;;;5032201;28;20344;-57
2024/01/07 06:50:06;;;;;;;65.25;61.88;;;;;;;;;;5032514;28;20132;-55
2024/01/07 06:52:32;;;;;;;71.93;68.18;;;;;;;;;;5028575;28;20120;-58
2024/01/07 06:54:57;;;;;;;68.90;65.30;;;;;;;;;;5033428;28;20037;-57
2024/01/07 06:57:22;;;;;;;60.03;56.90;;;;;;;;;;5028815;28;20399;-57
2024/01/07 06:59:48;;;;;;;59.70;56.53;;;;;;;;;;5029454;28;20067;-57
2024/01/07 07:02:13;;;;;;;62.25;59.00;;;;;;;;;;5031122;28;20026;-55
2024/01/07 07:04:38;;;;;;;60.47;56.80;;;;;;;;;;5028596;28;20041;-57
2024/01/07 07:07:03;;;;;;;53.38;50.53;;;;;;;;;;5032600;28;20171;-57
2024/01/07 07:09:29;;;;;;;55.92;53.05;;;;;;;;;;5031014;28;20532;-57
2024/01/07 07:11:54;;;;;;;49.83;47.28;;;;;;;;;;5030498;28;20034;-58
2024/01/07 07:14:20;;;;;;;51.10;48.28;;;;;;;;;;5033109;28;20487;-58
2024/01/07 07:16:46;;;;;;;54.78;51.90;;;;;;;;;;5028864;28;20033;-57
2024/01/07 07:19:14;;;;;;;51.45;48.70;;;;;;;;;;5031907;28;20033;-55
2024/01/07 07:21:40;;;;;;;61.53;57.88;;;;;;;;;;5030122;28;20128;-57
2024/01/07 07:24:05;;;;;;;53.13;50.42;;;;;;;;;;5033282;28;20100;-57
2024/01/07 07:26:31;;;;;;;53.25;50.47;;;;;;;;;;5032365;28;20545;-57
2024/01/07 07:28:57;;;;;;;52.42;49.55;;;;;;;;;;5030085;28;20104;-58
2024/01/07 07:31:22;;;;;;;50.30;47.53;;;;;;;;;;5029954;28;20033;-58
2024/01/07 07:33:47;;;;;;;52.63;49.83;;;;;;;;;;5030109;28;20037;-58
2024/01/07 07:36:14;;;;;;;57.72;54.78;;;;;;;;;;5030858;28;20067;-58
2024/01/07 07:38:40;;;;;;;55.72;52.85;;;;;;;;;;5030494;28;20033;-55
2024/01/07 07:41:07;;;;;;;57.78;54.75;;;;;;;;;;5034193;28;20049;-56
2024/01/07 07:43:33;;;;;;;63.30;59.90;;;;;;;;;;5029032;28;20045;-56
2024/01/07 07:45:59;;;;;;;58.42;55.35;;;;;;;;;;5042223;28;20029;-56
2024/01/07 07:48:26;;;;;;;61.72;58.50;;;;;;;;;;5033958;28;20039;-57
2024/01/07 07:50:51;;;;;;;75.68;71.70;;;;;;;;;;5015522;28;20034;-58
2024/01/07 07:53:16;;;;;;;70.60;67.03;;;;;;;;;;5033341;28;20402;-58
2024/01/07 07:55:42;;;;;;;61.58;58.45;;;;;;;;;;5031013;28;20048;-58
2024/01/07 07:58:08;;;;;;;67.95;64.40;;;;;;;;;;5029645;28;20037;-58
2024/01/07 08:00:33;;;;;;;62.15;59.05;;;;;;;;;;5034789;28;20108;-57
2024/01/07 08:02:59;;;;;;;61.58;58.40;;;;;;;;;;5032143;28;20033;-58
2024/01/07 08:05:24;;;;;;;59.90;56.85;;;;;;;;;;5029077;28;20048;-58
2024/01/07 08:07:49;;;;;;;55.22;52.40;;;;;;;;;;5032492;28;20037;-58
2024/01/07 08:10:15;;;;;;;56.42;53.42;;;;;;;;;;5029239;28;20033;-58
2024/01/07 08:12:41;;;;;;;60.00;56.80;;;;;;;;;;5028716;28;20037;-58
2024/01/07 08:15:07;;;;;;;56.88;53.95;;;;;;;;;;5032985;28;20059;-57
2024/01/07 08:17:32;;;;;;;59.88;56.67;;;;;;;;;;5035733;28;20033;-57
2024/01/07 08:19:58;;;;;;;59.60;56.40;;;;;;;;;;5029593;28;20111;-57
2024/01/07 08:22:23;;;;;;;64.05;60.78;;;;;;;;;;5030671;28;20021;-58
2024/01/07 08:24:50;;;;;;;63.22;59.83;;;;;;;;;;5027538;28;20064;-58
2024/01/07 08:27:15;;;;;;;63.83;60.45;;;;;;;;;;5029236;28;20149;-57
2024/01/07 08:29:43;;;;;;;65.97;62.60;;;;;;;;;;5021019;28;20068;-58
2024/01/07 08:32:09;;;;;;;77.30;72.85;;;;;;;;;;5028134;28;20363;-57
2024/01/07 08:34:34;;;;;;;68.88;65.28;;;;;;;;;;5032390;28;20351;-57
2024/01/07 08:37:00;;;;;;;71.72;67.97;;;;;;;;;;5031580;28;20643;-57
2024/01/07 08:39:25;;;;;;;71.57;67.43;;;;;;;;;;5028710;28;20653;-57
2024/01/07 08:41:51;;;;;;;73.57;69.45;;;;;;;;;;5028897;28;20061;-57
2024/01/07 08:44:16;;;;;;;66.88;63.38;;;;;;;;;;5033524;28;20033;-55
2024/01/07 08:46:42;;;;;;;62.95;59.75;;;;;;;;;;5032110;28;20041;-58
2024/01/07 08:49:07;;;;;;;63.80;60.53;;;;;;;;;;5027661;28;20025;-57
2024/01/07 08:51:32;;;;;;;65.95;62.65;;;;;;;;;;5025630;28;20512;-57
2024/01/07 08:53:58;;;;;;;57.78;54.67;;;;;;;;;;5030960;28;20022;-56
2024/01/07 08:56:25;;;;;;;61.85;58.65;;;;;;;;;;5029827;28;20039;-57
2024/01/07 08:58:50;;;;;;;55.92;53.03;;;;;;;;;;5030216;28;20029;-55
2024/01/07 09:01:15;;;;;;;60.42;57.30;;;;;;;;;;5027578;28;20034;-54
2024/01/07 09:03:42;;;;;;;52.83;50.08;;;;;;;;;;5031656;28;20025;-54
2024/01/07 09:06:07;;;;;;;46.90;44.40;;;;;;;;;;5030226;28;20121;-57
2024/01/07 09:08:34;;;;;;;50.90;48.13;;;;;;;;;;5031991;28;20131;-56
2024/01/07 09:11:00;;;;;;;50.05;47.35;;;;;;;;;;5034783;28;20300;-56
2024/01/07 09:13:25;;;;;;;52.10;49.38;;;;;;;;;;5030383;28;20120;-57
2024/01/07 09:15:51;;;;;;;52.22;49.50;;;;;;;;;;5030822;28;20103;-56
2024/01/07 09:18:16;;;;;;;52.78;50.03;;;;;;;;;;5032060;28;20056;-56
2024/01/07 09:20:41;;;;;;;52.15;49.35;;;;;;;;;;5029982;28;20032;-54
2024/01/07 09:23:07;;;;;;;50.22;47.53;;;;;;;;;;5026450;28;20033;-55
2024/01/07 09:25:32;;;;;;;53.35;50.20;;;;;;;;;;5028934;28;20047;-56
2024/01/07 09:27:58;;;;;;;51.47;48.67;;;;;;;;;;5027633;28;20036;-55
2024/01/07 09:30:23;;;;;;;49.38;46.65;;;;;;;;;;5030411;28;20017;-56
2024/01/07 09:32:50;;;;;;;51.92;49.13;;;;;;;;;;5028335;28;20029;-55
2024/01/07 09:35:15;;;;;;;48.17;45.58;;;;;;;;;;5031827;28;20485;-57
2024/01/07 09:37:41;;;;;;;47.80;45.30;;;;;;;;;;5032247;28;20036;-55
2024/01/07 09:40:07;;;;;;;51.92;49.22;;;;;;;;;;5010457;28;20129;-56
2024/01/07 09:42:32;;;;;;;50.63;47.92;;;;;;;;;;5028960;28;20030;-54
2024/01/07 09:45:03;;;;;;;50.95;47.65;;;;;;;;;;5026034;28;20026;-58
2024/01/07 09:47:28;;;;;;;47.17;44.23;;;;;;;;;;5028960;28;20463;-55
2024/01/07 09:49:53;;;;;;;46.30;43.83;;;;;;;;;;5029854;28;20282;-56
2024/01/07 09:52:20;;;;;;;48.95;46.42;;;;;;;;;;5028681;28;20454;-55
2024/01/07 09:54:51;;;;;;;53.47;50.22;;;;;;;;;;5030660;28;20056;-55
2024/01/07 09:57:16;;;;;;;46.22;43.72;;;;;;;;;;5028739;28;20025;-56
2024/01/07 09:59:41;;;;;;;46.20;43.53;;;;;;;;;;5029031;28;20512;-55
2024/01/07 10:02:07;;;;;;;40.75;38.63;;;;;;;;;;5032341;28;20080;-54
2024/01/07 10:04:32;;;;;;;40.53;38.42;;;;;;;;;;5030980;28;20452;-56
2024/01/07 10:06:58;;;;;;;41.25;39.10;;;;;;;;;;5031584;28;20045;-55
2024/01/07 10:09:26;;;;;;;43.28;40.97;;;;;;;;;;5030245;28;20060;-56
2024/01/07 10:11:51;;;;;;;41.30;39.13;;;;;;;;;;5028813;28;20447;-56
2024/01/07 10:14:17;;;;;;;42.55;40.35;;;;;;;;;;5034218;28;20037;-55
2024/01/07 10:16:42;;;;;;;42.40;40.08;;;;;;;;;;5029421;28;20457;-55
2024/01/07 10:19:08;;;;;;;44.20;41.78;;;;;;;;;;5032781;28;20055;-56
2024/01/07 10:21:34;;;;;;;41.47;39.30;;;;;;;;;;5028873;28;20124;-57
2024/01/07 10:24:10;;;;;;;49.78;47.08;;;;;;;;;;5028427;28;20033;-55
2024/01/07 10:26:37;;;;;;;41.03;38.92;;;;;;;;;;5030861;28;20040;-56
2024/01/07 10:29:03;;;;;;;44.00;41.67;;;;;;;;;;5025918;28;20065;-56
2024/01/07 10:31:29;;;;;;;41.65;39.17;;;;;;;;;;5027692;28;20113;-57
2024/01/07 10:33:56;;;;;;;44.83;42.53;;;;;;;;;;5029348;28;20071;-56
2024/01/07 10:36:22;;;;;;;41.28;39.08;;;;;;;;;;5032402;28;20088;-56
2024/01/07 10:38:48;;;;;;;41.15;38.88;;;;;;;;;;5028901;28;20041;-55
2024/01/07 10:41:16;;;;;;;40.70;38.47;;;;;;;;;;5029599;28;20041;-56
2024/01/07 10:43:42;;;;;;;41.70;39.47;;;;;;;;;;5029010;28;20045;-55
2024/01/07 10:46:10;;;;;;;39.10;37.00;;;;;;;;;;5030605;28;20029;-55
2024/01/07 10:48:38;;;;;;;37.70;35.75;;;;;;;;;;5030512;28;20388;-55
2024/01/07 10:51:04;;;;;;;38.95;36.85;;;;;;;;;;5028599;28;20095;-54
2024/01/07 10:53:36;;;;;;;39.95;37.83;;;;;;;;;;5031397;28;20112;-56
2024/01/07 10:56:04;;;;;;;37.53;35.53;;;;;;;;;;5026590;28;20180;-56
2024/01/07 10:58:36;;;;;;;35.65;33.75;;;;;;;;;;5024717;28;20039;-56
2024/01/07 11:01:03;;;;;;;;;;;;;;;;;;5028064;28;20033;-57
2024/01/07 11:03:55;;;;;;;38.92;36.83;;;;;;;;;;5028701;28;19973;-58
2024/01/07 11:06:26;;;;;;;37.60;35.67;;;;;;;;;;5032711;28;20526;-56
2024/01/07 11:08:59;;;;;;;36.88;34.97;;;;;;;;;;5030907;28;20041;-56
2024/01/07 11:11:31;;;;;;;38.92;36.67;;;;;;;;;;5023820;28;20032;-55
2024/01/07 11:13:56;;;;;;;37.47;35.53;;;;;;;;;;5029430;28;20045;-56
2024/01/07 11:16:42;;;;;;;39.42;37.17;;;;;;;;;;5029883;28;20106;-57
2024/01/07 11:19:07;;;;;;;40.97;38.75;;;;;;;;;;5032009;28;20033;-56
2024/01/07 11:21:33;;;;;;;39.05;37.00;;;;;;;;;;5031361;28;20025;-55
2024/01/07 11:23:58;;;;;;;37.92;35.92;;;;;;;;;;5032553;28;20039;-56
2024/01/07 11:26:23;;;;;;;36.88;34.88;;;;;;;;;;5032047;28;20051;-56
2024/01/07 11:29:00;;;;;;;36.28;34.38;;;;;;;;;;5033054;28;20047;-55
2024/01/07 11:31:49;;;;;;;39.30;37.20;;;;;;;;;;5029483;28;20025;-57
2024/01/07 11:34:43;;;;;;;36.10;34.17;;;;;;;;;;5035263;28;20056;-56
2024/01/07 11:37:13;;;;;;;35.53;33.67;;;;;;;;;;5033395;28;20068;-57
2024/01/07 11:39:45;;;;;;;38.15;36.15;;;;;;;;;;5032558;28;20025;-57
2024/01/07 11:42:11;;;;;;;36.97;35.05;;;;;;;;;;5030919;28;20018;-57
2024/01/07 11:44:37;;;;;;;37.30;35.35;;;;;;;;;;5034708;28;20387;-57
2024/01/07 11:47:06;;;;;;;38.38;36.38;;;;;;;;;;5036687;28;20040;-57
2024/01/07 11:49:33;;;;;;;40.25;38.15;;;;;;;;;;5035311;28;20379;-57
2024/01/07 11:51:58;;;;;;;38.40;36.30;;;;;;;;;;5031280;28;20083;-57
2024/01/07 11:54:24;;;;;;;40.30;38.20;;;;;;;;;;5029593;28;20068;-56
2024/01/07 11:56:49;;;;;;;38.38;36.38;;;;;;;;;;5032237;28;20040;-57
2024/01/07 11:59:15;;;;;;;39.42;37.42;;;;;;;;;;5030313;28;20041;-57
2024/01/07 12:01:40;;;;;;;40.15;38.03;;;;;;;;;;5034564;28;20522;-57
2024/01/07 12:04:05;;;;;;;42.20;40.00;;;;;;;;;;5033885;28;20518;-57
2024/01/07 12:06:31;;;;;;;39.70;37.60;;;;;;;;;;5032613;28;20033;-57
2024/01/07 12:08:56;;;;;;;38.47;36.47;;;;;;;;;;5030009;28;20467;-57
2024/01/07 12:11:22;;;;;;;39.03;36.92;;;;;;;;;;5028267;28;20025;-57
2024/01/07 12:13:49;;;;;;;37.53;35.15;;;;;;;;;;5031021;28;20522;-57
2024/01/07 12:16:14;;;;;;;40.25;38.10;;;;;;;;;;5033145;28;20424;-55
2024/01/07 12:18:40;;;;;;;38.78;36.78;;;;;;;;;;5034561;28;20059;-57
2024/01/07 12:21:05;;;;;;;40.03;37.92;;;;;;;;;;5033580;28;20034;-56
2024/01/07 12:23:36;;;;;;;39.92;37.83;;;;;;;;;;5031631;28;20232;-55
2024/01/07 12:26:09;;;;;;;41.33;38.75;;;;;;;;;;5035812;28;20628;-57
2024/01/07 12:28:34;;;;;;;41.17;39.08;;;;;;;;;;5030022;28;20083;-56
2024/01/07 12:31:01;;;;;;;39.42;37.33;;;;;;;;;;5033341;28;20041;-56
2024/01/07 12:33:28;;;;;;;39.85;37.72;;;;;;;;;;5032046;28;20044;-58
2024/01/07 12:35:54;;;;;;;37.70;35.75;;;;;;;;;;5028855;28;20021;-56
2024/01/07 12:38:27;;;;;;;37.60;35.60;;;;;;;;;;5028311;28;20029;-57
2024/01/07 12:40:53;;;;;;;37.75;35.58;;;;;;;;;;5030780;28;20471;-57
2024/01/07 12:43:19;;;;;;;37.72;35.63;;;;;;;;;;5030606;28;20055;-57
2024/01/07 12:45:44;;;;;;;39.95;37.65;;;;;;;;;;5031114;28;20511;-56
2024/01/07 12:48:09;;;;;;;37.50;35.53;;;;;;;;;;5031947;28;20037;-56
2024/01/07 12:50:35;;;;;;;37.55;35.50;;;;;;;;;;5032905;28;20043;-56
2024/01/07 12:53:00;;;;;;;35.53;33.58;;;;;;;;;;5032270;28;20456;-54
2024/01/07 12:55:26;;;;;;;35.28;33.38;;;;;;;;;;5028634;28;20063;-56
2024/01/07 12:57:51;;;;;;;36.35;34.38;;;;;;;;;;5030277;28;20040;-56
2024/01/07 13:00:17;;;;;;;37.63;35.42;;;;;;;;;;5033386;28;20038;-58
2024/01/07 13:02:43;;;;;;;36.67;34.78;;;;;;;;;;5028818;28;20026;-55
2024/01/07 13:05:08;;;;;;;38.13;36.05;;;;;;;;;;5027818;28;20629;-53
2024/01/07 13:07:34;;;;;;;39.78;37.67;;;;;;;;;;5029769;28;20039;-54
2024/01/07 13:10:00;;;;;;;39.42;37.33;;;;;;;;;;5031039;28;20073;-56
2024/01/07 13:12:26;;;;;;;35.63;33.78;;;;;;;;;;5029106;28;20045;-57
2024/01/07 13:14:52;;;;;;;38.05;35.95;;;;;;;;;;5026632;28;20032;-56
2024/01/07 13:17:17;;;;;;;36.33;34.38;;;;;;;;;;5030887;28;20121;-55
2024/01/07 13:19:43;;;;;;;36.13;34.25;;;;;;;;;;5032160;28;20120;-57
2024/01/07 13:22:09;;;;;;;38.33;36.20;;;;;;;;;;5033031;28;20021;-56
2024/01/07 13:24:34;;;;;;;36.92;34.95;;;;;;;;;;5031499;28;20052;-56
2024/01/07 13:26:59;;;;;;;38.20;36.10;;;;;;;;;;5029750;28;20060;-55
2024/01/07 13:29:25;;;;;;;34.95;33.10;;;;;;;;;;5027138;28;20029;-56
2024/01/07 13:31:50;;;;;;;34.95;33.15;;;;;;;;;;5026854;28;20036;-55
2024/01/07 13:34:17;;;;;;;34.65;32.85;;;;;;;;;;5028468;28;20196;-55
2024/01/07 13:36:43;;;;;;;36.22;34.33;;;;;;;;;;5031561;28;20130;-54
2024/01/07 13:39:09;;;;;;;40.03;37.78;;;;;;;;;;5030824;28;21021;-55
2024/01/07 13:41:35;;;;;;;32.78;31.05;;;;;;;;;;5027210;28;20125;-56
2024/01/07 13:44:01;;;;;;;33.92;32.05;;;;;;;;;;5028897;28;20352;-56
2024/01/07 13:46:26;;;;;;;32.15;30.42;;;;;;;;;;5032527;28;20411;-55
2024/01/07 13:48:51;;;;;;;32.65;30.90;;;;;;;;;;5030974;28;20478;-57
2024/01/07 13:51:20;;;;;;;36.67;32.35;;;;;;;;;;5026857;28;20025;-55
2024/01/07 13:53:46;;;;;;;34.05;32.20;;;;;;;;;;5032225;28;20052;-57
2024/01/07 13:56:12;;;;;;;35.08;33.17;;;;;;;;;;5028045;28;20029;-56
2024/01/07 13:58:37;;;;;;;33.03;31.05;;;;;;;;;;5026683;28;20036;-55
2024/01/07 14:01:03;;;;;;;30.90;29.25;;;;;;;;;;5026293;28;20060;-58
2024/01/07 14:03:30;;;;;;;32.53;30.75;;;;;;;;;;5029564;28;20649;-55
2024/01/07 14:05:56;;;;;;;31.20;29.60;;;;;;;;;;5030120;28;20034;-58
2024/01/07 14:08:21;;;;;;;30.45;28.67;;;;;;;;;;5028642;28;20462;-57
2024/01/07 14:10:46;;;;;;;31.45;29.58;;;;;;;;;;5029683;28;20063;-56
2024/01/07 14:13:12;;;;;;;31.83;30.13;;;;;;;;;;5026615;28;20112;-57
2024/01/07 14:15:37;;;;;;;30.90;29.13;;;;;;;;;;5028171;28;20037;-55
2024/01/07 14:18:02;;;;;;;28.17;26.67;;;;;;;;;;5029847;28;20033;-52
2024/01/07 14:20:31;;;;;;;29.35;27.67;;;;;;;;;;5027729;28;20029;-56
2024/01/07 14:22:56;;;;;;;27.55;25.95;;;;;;;;;;5030787;28;20075;-55
2024/01/07 14:25:22;;;;;;;27.33;25.92;;;;;;;;;;5026816;28;20029;-54
2024/01/07 14:27:47;;;;;;;26.55;25.15;;;;;;;;;;5028337;28;20045;-54
2024/01/07 14:30:13;;;;;;;29.52;27.95;;;;;;;;;;5028016;28;20195;-55